createdAt,value
2023-03-17T00:00:59.929Z,59.94
2023-03-17T00:04:02.856Z,60.20
2023-03-17T00:07:06.709Z,60.37
2023-03-17T00:10:15.638Z,60.42
2023-03-17T00:13:20.207Z,60.67
2023-03-17T00:16:27.005Z,60.92
2023-03-17T00:19:32.280Z,60.69
2023-03-17T00:22:35.052Z,61.51
2023-03-17T00:25:38.431Z,61.91
2023-03-17T00:28:43.293Z,62.63
2023-03-17T00:31:46.784Z,62.97
2023-03-17T00:34:49.570Z,61.81
2023-03-17T00:37:54.612Z,62.35
2023-03-17T00:40:57.465Z,62.15
2023-03-17T00:44:01.826Z,61.70
2023-03-17T00:47:04.993Z,60.88
2023-03-17T00:50:12.184Z,61.33
2023-03-17T00:53:17.759Z,60.81
2023-03-17T00:56:22.153Z,62.02
2023-03-17T00:59:30.764Z,62.61
2023-03-17T01:02:33.919Z,61.93
2023-03-17T01:05:36.968Z,61.45
2023-03-17T01:08:40.959Z,62.14
2023-03-17T01:11:44.247Z,62.71
2023-03-17T01:14:49.112Z,62.90
2023-03-17T01:17:52.828Z,64.22
2023-03-17T01:20:55.546Z,64.63
2023-03-17T01:23:58.258Z,64.80
2023-03-17T01:27:01.072Z,65.44
2023-03-17T01:30:05.869Z,65.26
2023-03-17T01:33:10.452Z,66.27
2023-03-17T01:36:13.422Z,66.46
2023-03-17T01:39:16.263Z,66.61
2023-03-17T01:42:18.904Z,66.14
2023-03-17T01:45:59.420Z,65.72
2023-03-17T01:49:09.759Z,65.90
2023-03-17T01:52:16.475Z,66.41
2023-03-17T01:55:20.649Z,67.89
2023-03-17T01:58:25.145Z,66.99
2023-03-17T02:01:34.035Z,64.97
2023-03-17T02:04:40.332Z,64.28
2023-03-17T02:07:43.088Z,63.32
2023-03-17T02:10:50.590Z,63.59
2023-03-17T02:13:53.970Z,65.12
2023-03-17T02:16:57.568Z,65.09
2023-03-17T02:20:15.703Z,65.71
2023-03-17T02:23:23.324Z,66.22
2023-03-17T02:26:28.171Z,66.39
2023-03-17T02:29:35.023Z,66.01
2023-03-17T02:32:38.699Z,66.51
2023-03-17T02:35:42.253Z,67.30
2023-03-17T02:38:46.453Z,66.77
2023-03-17T02:41:49.192Z,66.64
2023-03-17T02:44:51.956Z,66.50
2023-03-17T02:47:56.032Z,66.55
2023-03-17T02:50:58.747Z,66.41
2023-03-17T02:54:02.906Z,66.78
2023-03-17T02:57:07.557Z,68.05
2023-03-17T03:00:11.826Z,68.80
2023-03-17T03:03:14.583Z,69.04
2023-03-17T03:06:17.535Z,69.58
2023-03-17T03:09:22.468Z,69.21
2023-03-17T03:12:25.512Z,70.01
2023-03-17T03:15:28.499Z,69.48
2023-03-17T03:18:31.524Z,69.86
2023-03-17T03:21:34.769Z,69.69
2023-03-17T03:24:38.969Z,68.85
2023-03-17T03:27:41.674Z,67.65
2023-03-17T03:30:45.662Z,68.37
2023-03-17T03:33:48.442Z,68.53
2023-03-17T03:36:51.222Z,69.06
2023-03-17T03:39:55.294Z,69.00
2023-03-17T03:42:58.105Z,67.97
2023-03-17T03:46:00.872Z,67.62
2023-03-17T03:49:03.792Z,67.80
2023-03-17T03:52:07.165Z,68.36
2023-03-17T03:55:12.211Z,67.80
2023-03-17T03:58:14.984Z,68.54
2023-03-17T04:01:18.052Z,68.13
2023-03-17T04:04:21.598Z,69.34
2023-03-17T04:07:24.446Z,68.66
2023-03-17T04:10:28.992Z,68.38
2023-03-17T04:13:32.056Z,68.04
2023-03-17T04:16:34.777Z,68.21
2023-03-17T04:19:38.092Z,69.59
2023-03-17T04:22:40.952Z,69.47
2023-03-17T04:25:45.064Z,69.99
2023-03-17T04:28:47.835Z,70.05
2023-03-17T04:31:50.673Z,70.02
2023-03-17T04:34:53.529Z,70.45
2023-03-17T04:37:56.474Z,69.30
2023-03-17T04:41:00.905Z,69.32
2023-03-17T04:44:03.688Z,68.94
2023-03-17T04:47:07.701Z,69.11
2023-03-17T04:50:11.828Z,70.42
2023-03-17T04:53:14.570Z,70.91
2023-03-17T04:56:18.947Z,71.43
2023-03-17T04:59:21.916Z,70.53
2023-03-17T05:02:24.812Z,70.84
2023-03-17T05:05:27.556Z,71.32
2023-03-17T05:08:30.876Z,71.44
2023-03-17T05:11:35.102Z,70.63
2023-03-17T05:14:37.998Z,71.25
2023-03-17T05:17:40.925Z,71.08
2023-03-17T05:20:43.822Z,71.16
2023-03-17T05:23:46.529Z,70.40
2023-03-17T05:26:50.756Z,70.17
2023-03-17T05:29:53.530Z,70.03
2023-03-17T05:32:56.167Z,69.83
2023-03-17T05:35:58.900Z,69.15
2023-03-17T05:39:01.723Z,69.66
2023-03-17T05:42:06.203Z,68.91
2023-03-17T05:45:10.373Z,69.41
2023-03-17T05:48:13.310Z,69.79
2023-03-17T05:51:16.718Z,70.21
2023-03-17T05:54:19.504Z,70.44
2023-03-17T05:57:24.808Z,69.42
2023-03-17T06:00:29.338Z,69.77
2023-03-17T06:03:32.589Z,69.96
2023-03-17T06:06:35.351Z,69.87
2023-03-17T06:09:38.482Z,69.16
2023-03-17T06:12:42.991Z,69.23
2023-03-17T06:15:49.211Z,69.20
2023-03-17T06:18:52.105Z,68.82
2023-03-17T06:21:54.938Z,69.18
2023-03-17T06:24:57.588Z,67.51
2023-03-17T06:28:03.994Z,67.47
2023-03-17T06:31:08.773Z,67.36
2023-03-17T06:34:12.086Z,67.78
2023-03-17T06:37:15.499Z,66.67
2023-03-17T06:40:18.649Z,66.41
2023-03-17T06:43:25.014Z,64.65
2023-03-17T06:46:27.967Z,64.68
2023-03-17T06:49:30.755Z,64.88
2023-03-17T06:52:33.605Z,63.91
2023-03-17T06:55:36.549Z,60.62
2023-03-17T06:58:43.307Z,58.47
2023-03-17T07:01:46.477Z,57.08
2023-03-17T07:04:49.283Z,54.42
2023-03-17T07:07:52.303Z,50.14
2023-03-17T07:10:57.374Z,47.80
2023-03-17T07:14:01.507Z,45.09
2023-03-17T07:17:04.525Z,43.96
2023-03-17T07:20:07.993Z,41.75
2023-03-17T07:23:15.652Z,40.06
2023-03-17T07:26:18.446Z,40.56
2023-03-17T07:29:22.719Z,41.66
2023-03-17T07:32:25.599Z,43.92
2023-03-17T07:35:29.017Z,44.96
2023-03-17T07:38:32.009Z,46.57
2023-03-17T07:41:35.411Z,49.68
2023-03-17T07:44:41.441Z,51.06
2023-03-17T07:47:44.296Z,52.02
2023-03-17T07:50:47.368Z,51.88
2023-03-17T07:53:51.698Z,53.33
2023-03-17T07:56:54.622Z,53.32
2023-03-17T07:59:58.846Z,54.30
2023-03-17T08:03:09.973Z,53.18
2023-03-17T08:06:14.046Z,53.90
2023-03-17T08:09:17.190Z,55.09
2023-03-17T08:12:20.284Z,54.41
2023-03-17T08:15:24.456Z,53.87
2023-03-17T08:18:27.529Z,54.39
2023-03-17T08:21:30.913Z,54.61
2023-03-17T08:24:34.287Z,54.53
2023-03-17T08:27:37.093Z,53.24
2023-03-17T08:30:42.369Z,53.53
2023-03-17T08:33:48.479Z,54.82
2023-03-17T08:36:51.747Z,52.92
2023-03-17T08:39:54.475Z,53.03
2023-03-17T08:42:57.467Z,53.60
2023-03-17T08:46:04.286Z,52.71
2023-03-17T08:49:09.599Z,50.53
2023-03-17T08:52:12.426Z,52.53
2023-03-17T08:55:16.249Z,51.52
2023-03-17T08:58:20.164Z,49.21
2023-03-17T09:01:25.221Z,50.03
2023-03-17T09:04:28.796Z,48.51
2023-03-17T09:07:31.868Z,49.90
2023-03-17T09:10:34.740Z,46.00
2023-03-17T09:13:39.064Z,45.49
2023-03-17T09:16:43.236Z,45.32
2023-03-17T09:19:46.017Z,46.53
2023-03-17T09:22:49.158Z,44.85
2023-03-17T09:25:52.459Z,43.64
2023-03-17T09:28:55.302Z,42.76
2023-03-17T09:31:59.522Z,44.05
2023-03-17T09:35:02.664Z,41.88
2023-03-17T09:38:05.585Z,41.18
2023-03-17T09:41:28.395Z,40.82
2023-03-17T09:44:57.209Z,40.89
2023-03-17T09:48:23.723Z,40.59
2023-03-17T09:51:26.793Z,40.26
2023-03-17T09:54:34.708Z,40.16
2023-03-17T09:57:39.602Z,39.49
2023-03-17T10:00:42.590Z,39.57
2023-03-17T10:03:47.519Z,39.38
2023-03-17T10:06:52.106Z,39.88
2023-03-17T10:10:03.047Z,39.55
2023-03-17T10:13:15.061Z,38.29
2023-03-17T10:16:20.844Z,38.03
2023-03-17T10:19:30.444Z,37.04
2023-03-17T10:22:39.428Z,37.00
2023-03-17T10:25:42.803Z,36.88
2023-03-17T10:28:45.762Z,37.85
2023-03-17T10:31:48.965Z,38.28
2023-03-17T10:34:54.207Z,36.71
2023-03-17T10:38:13.519Z,38.02
2023-03-17T10:41:17.324Z,40.03
2023-03-17T10:44:27.657Z,38.58
2023-03-17T10:47:32.805Z,38.74
2023-03-17T10:50:39.958Z,37.50
2023-03-17T10:53:44.463Z,37.09
2023-03-17T10:56:50.296Z,37.33
2023-03-17T10:59:56.438Z,37.04
2023-03-17T11:03:00.812Z,36.46
2023-03-17T11:06:07.121Z,36.49
2023-03-17T11:09:16.821Z,35.48
2023-03-17T11:12:25.561Z,35.73
2023-03-17T11:15:34.242Z,34.86
2023-03-17T11:18:38.662Z,37.45
2023-03-17T11:21:50.426Z,37.00
2023-03-17T11:25:01.661Z,34.74
2023-03-17T11:28:17.843Z,36.99
2023-03-17T11:31:27.852Z,37.03
2023-03-17T11:34:52.633Z,35.59
2023-03-17T11:38:20.173Z,36.99
2023-03-17T11:41:45.032Z,36.73
2023-03-17T11:45:25.200Z,35.95
2023-03-17T11:48:38.617Z,36.43
2023-03-17T11:51:53.724Z,37.19
2023-03-17T11:55:09.137Z,36.87
2023-03-17T11:58:27.675Z,33.86
2023-03-17T12:01:39.921Z,35.92
2023-03-17T12:04:50.653Z,34.23
2023-03-17T12:07:57.077Z,35.14
2023-03-17T12:11:06.729Z,34.98
2023-03-17T12:14:21.076Z,33.65
2023-03-17T12:17:30.447Z,35.79
2023-03-17T12:20:43.698Z,36.20
2023-03-17T12:23:49.655Z,36.47
2023-03-17T12:27:00.322Z,34.58
2023-03-17T12:30:09.203Z,36.58
2023-03-17T12:33:20.664Z,37.37
2023-03-17T12:36:24.321Z,36.51
2023-03-17T12:39:33.279Z,37.22
2023-03-17T12:42:47.814Z,35.44
2023-03-17T12:46:17.578Z,35.56
2023-03-17T12:49:49.432Z,34.10
2023-03-17T12:53:15.458Z,34.25
2023-03-17T12:56:22.668Z,36.51
2023-03-17T12:59:27.170Z,35.30
2023-03-17T13:02:38.428Z,36.34
2023-03-17T13:05:47.070Z,35.85
2023-03-17T13:08:52.172Z,36.40
2023-03-17T13:11:55.770Z,36.53
2023-03-17T13:15:00.189Z,37.18
2023-03-17T13:18:31.293Z,37.56
2023-03-17T13:21:36.357Z,37.27
2023-03-17T13:24:48.579Z,35.98
2023-03-17T13:27:51.288Z,35.30
2023-03-17T13:31:11.366Z,36.72
2023-03-17T13:34:17.822Z,35.17
2023-03-17T13:37:27.918Z,36.57
2023-03-17T13:40:41.723Z,36.79
2023-03-17T13:44:01.674Z,36.38
2023-03-17T13:47:28.379Z,36.35
2023-03-17T13:50:33.664Z,35.88
2023-03-17T13:53:41.181Z,37.43
2023-03-17T13:56:53.816Z,34.45
2023-03-17T14:00:05.640Z,34.02
2023-03-17T14:03:14.552Z,34.20
2023-03-17T14:06:19.581Z,34.35
2023-03-17T14:09:33.930Z,35.16
2023-03-17T14:12:44.921Z,35.02
2023-03-17T14:15:52.169Z,37.63
2023-03-17T14:19:01.254Z,37.32
2023-03-17T14:22:06.085Z,38.11
2023-03-17T14:25:17.659Z,38.92
2023-03-17T14:28:28.472Z,37.46
2023-03-17T14:31:31.671Z,36.25
2023-03-17T14:34:43.038Z,34.00
2023-03-17T14:37:46.389Z,36.23
2023-03-17T14:40:50.443Z,34.75
2023-03-17T14:43:56.232Z,34.63
2023-03-17T14:47:04.013Z,37.75
2023-03-17T14:50:18.045Z,38.03
2023-03-17T14:53:22.428Z,34.89
2023-03-17T14:56:30.697Z,34.82
2023-03-17T14:59:36.508Z,33.87
2023-03-17T15:02:41.261Z,33.44
2023-03-17T15:05:46.668Z,32.80
2023-03-17T15:08:49.512Z,33.64
2023-03-17T15:11:55.225Z,33.74
2023-03-17T15:15:01.690Z,32.74
2023-03-17T15:18:08.253Z,32.95
2023-03-17T15:21:25.343Z,32.75
2023-03-17T15:24:35.132Z,34.46
2023-03-17T15:27:37.745Z,35.10
2023-03-17T15:30:47.449Z,33.53
2023-03-17T15:33:51.360Z,34.59
2023-03-17T15:36:56.078Z,35.99
2023-03-17T15:40:01.012Z,36.28
2023-03-17T15:43:03.767Z,36.22
2023-03-17T15:46:09.415Z,36.07
2023-03-17T15:49:13.268Z,35.45
2023-03-17T15:52:21.600Z,35.54
2023-03-17T15:55:26.002Z,34.41
2023-03-17T15:58:28.676Z,33.89
2023-03-17T16:01:31.364Z,34.73
2023-03-17T16:04:34.168Z,34.77
2023-03-17T16:07:38.389Z,33.95
2023-03-17T16:10:41.035Z,34.87
2023-03-17T16:13:43.621Z,36.00
2023-03-17T16:16:46.787Z,39.15
2023-03-17T16:19:49.528Z,43.44
2023-03-17T16:22:54.783Z,44.96
2023-03-17T16:26:11.695Z,47.39
2023-03-17T16:29:17.902Z,49.47
2023-03-17T16:32:20.671Z,51.04
2023-03-17T16:35:25.522Z,52.49
2023-03-17T16:38:31.512Z,52.97
2023-03-17T16:41:36.116Z,51.42
2023-03-17T16:44:38.816Z,51.38
2023-03-17T16:47:41.503Z,49.15
2023-03-17T16:50:44.852Z,49.84
2023-03-17T16:53:48.839Z,50.48
2023-03-17T16:56:51.813Z,51.39
2023-03-17T16:59:54.548Z,51.60
2023-03-17T17:02:57.376Z,50.81
2023-03-17T17:06:00.321Z,50.92
2023-03-17T17:09:04.664Z,50.31
2023-03-17T17:12:07.525Z,50.39
2023-03-17T17:15:12.756Z,50.51
2023-03-17T17:18:17.643Z,51.19
2023-03-17T17:21:20.472Z,51.31
2023-03-17T17:24:24.445Z,52.14
2023-03-17T17:27:27.122Z,52.13
2023-03-17T17:30:31.478Z,52.76
2023-03-17T17:33:35.214Z,54.36
2023-03-17T17:36:37.849Z,55.66
2023-03-17T17:39:41.806Z,54.69
2023-03-17T17:42:46.281Z,55.62
2023-03-17T17:45:49.916Z,56.02
2023-03-17T17:48:52.693Z,56.88
2023-03-17T17:51:55.315Z,57.39
2023-03-17T17:54:59.802Z,58.54
2023-03-17T17:58:02.529Z,59.19
2023-03-17T18:01:05.554Z,59.91
2023-03-17T18:04:09.485Z,60.01
2023-03-17T18:07:12.216Z,60.31
2023-03-17T18:10:19.260Z,60.57
2023-03-17T18:13:22.011Z,60.28
2023-03-17T18:16:25.715Z,61.12
2023-03-17T18:19:28.415Z,61.65
2023-03-17T18:22:31.063Z,61.88
2023-03-17T18:25:35.652Z,62.42
2023-03-17T18:28:38.378Z,61.76
2023-03-17T18:31:43.864Z,62.82
2023-03-17T18:34:48.959Z,63.19
2023-03-17T18:37:51.971Z,63.45
2023-03-17T18:40:55.980Z,64.44
2023-03-17T18:43:58.826Z,64.33
2023-03-17T18:47:02.257Z,65.07
2023-03-17T18:50:06.304Z,65.16
2023-03-17T18:53:08.909Z,61.43
2023-03-17T18:56:13.299Z,60.07
2023-03-17T18:59:16.460Z,60.12
2023-03-17T19:02:19.123Z,61.82
2023-03-17T19:05:21.840Z,63.49
2023-03-17T19:08:24.849Z,63.06
2023-03-17T19:11:29.748Z,63.75
2023-03-17T19:14:33.059Z,63.95
2023-03-17T19:17:35.697Z,64.60
2023-03-17T19:20:38.326Z,65.26
2023-03-17T19:23:41.575Z,65.07
2023-03-17T19:26:45.675Z,66.09
2023-03-17T19:29:48.315Z,66.55
2023-03-17T19:32:51.116Z,66.14
2023-03-17T19:35:56.132Z,66.41
2023-03-17T19:38:58.767Z,65.85
2023-03-17T19:42:03.198Z,65.77
2023-03-17T19:45:07.905Z,66.17
2023-03-17T19:48:10.603Z,65.65
2023-03-17T19:51:13.254Z,66.12
2023-03-17T19:54:16.591Z,65.72
2023-03-17T19:57:21.137Z,65.71
2023-03-17T20:00:24.665Z,66.48
2023-03-17T20:03:27.763Z,66.24
2023-03-17T20:06:31.906Z,66.27
2023-03-17T20:09:37.734Z,66.96
2023-03-17T20:12:43.293Z,67.10
2023-03-17T20:15:46.642Z,66.80
2023-03-17T20:18:49.504Z,66.90
2023-03-17T20:21:52.437Z,66.87
2023-03-17T20:24:55.052Z,67.06
2023-03-17T20:27:59.058Z,67.20
2023-03-17T20:31:02.893Z,67.57
2023-03-17T20:34:05.683Z,67.77
2023-03-17T20:37:08.572Z,68.18
2023-03-17T20:40:12.647Z,68.43
2023-03-17T20:43:17.018Z,68.25
2023-03-17T20:46:22.043Z,68.71
2023-03-17T20:49:24.687Z,68.47
2023-03-17T20:52:30.079Z,68.66
2023-03-17T20:55:32.790Z,69.19
2023-03-17T20:58:36.801Z,69.43
2023-03-17T21:01:40.233Z,70.54
2023-03-17T21:04:46.527Z,70.49
2023-03-17T21:07:49.493Z,69.93
2023-03-17T21:10:52.111Z,70.62
2023-03-17T21:13:56.111Z,70.74
2023-03-17T21:16:59.219Z,70.36
2023-03-17T21:20:01.998Z,70.97
2023-03-17T21:23:07.686Z,71.12
2023-03-17T21:26:10.988Z,71.71
2023-03-17T21:29:14.983Z,72.27
2023-03-17T21:32:17.619Z,71.38
2023-03-17T21:35:20.275Z,70.80
2023-03-17T21:38:22.988Z,71.13
2023-03-17T21:41:32.075Z,71.37
2023-03-17T21:44:36.073Z,69.80
2023-03-17T21:47:40.804Z,70.55
2023-03-17T21:50:43.980Z,72.08
2023-03-17T21:53:47.420Z,72.02
2023-03-17T21:56:50.486Z,72.37
2023-03-17T21:59:54.459Z,72.71
2023-03-17T22:02:59.189Z,72.44
2023-03-17T22:06:05.487Z,72.86
2023-03-17T22:09:08.644Z,72.42
2023-03-17T22:12:12.134Z,71.41
2023-03-17T22:15:16.236Z,72.50
2023-03-17T22:18:18.938Z,71.84
2023-03-17T22:21:23.473Z,72.49
2023-03-17T22:24:26.477Z,72.52
2023-03-17T22:27:29.200Z,72.46
2023-03-17T22:30:33.516Z,71.98
2023-03-17T22:33:36.433Z,71.96
2023-03-17T22:36:39.055Z,72.13
2023-03-17T22:39:41.678Z,71.54
2023-03-17T22:42:44.334Z,71.95
2023-03-17T22:45:48.568Z,72.32
2023-03-17T22:48:52.409Z,71.62
2023-03-17T22:51:55.069Z,72.05
2023-03-17T22:54:57.852Z,71.70
2023-03-17T22:58:00.485Z,72.37
2023-03-17T23:01:06.397Z,71.46
2023-03-17T23:04:09.141Z,71.71
2023-03-17T23:07:11.920Z,70.97
2023-03-17T23:10:17.435Z,70.87
2023-03-17T23:13:21.522Z,70.53
2023-03-17T23:16:25.505Z,70.29
2023-03-17T23:19:28.217Z,70.79
2023-03-17T23:22:30.847Z,70.75
2023-03-17T23:25:33.597Z,70.71
2023-03-17T23:28:36.714Z,72.10
2023-03-17T23:31:41.059Z,71.90
2023-03-17T23:34:43.711Z,71.78
2023-03-17T23:37:46.516Z,72.18
2023-03-17T23:40:50.129Z,71.66
2023-03-17T23:43:52.738Z,71.25
2023-03-17T23:46:57.056Z,70.62
2023-03-17T23:49:59.920Z,70.38
2023-03-17T23:53:02.832Z,70.27
2023-03-17T23:56:05.965Z,70.41
2023-03-17T23:59:10.749Z,70.58
